Time;durP1;ratioP1;P1;durP2;ratioP2;P2;SDS_P1;SDS_P2;PMS_P1;PMS_P2;Temp;Humidity;BMP_temperature;BMP_pressure;BME280_temperature;BME280_humidity;BME280_pressure;Samples;Min_cycle;Max_cycle;Signal;HPM_P1;HPM_P2
2021/09/02 00:01:21;;;;;;;3.92;2.40;;;;;;;;;;143734;596;46023;-88
2021/09/02 00:03:48;;;;;;;2.78;1.85;;;;;;;;;;143734;622;46013;-90
2021/09/02 00:06:17;;;;;;;3.55;2.15;;;;;;;;;;143736;598;46020;-88
2021/09/02 00:08:43;;;;;;;3.62;1.80;;;;;;;;;;143738;581;46045;-87
2021/09/02 00:11:10;;;;;;;8.88;2.28;;;;;;;;;;143736;575;46022;-87
2021/09/02 00:13:39;;;;;;;3.67;2.20;;;;;;;;;;143737;638;46012;-90
2021/09/02 00:16:06;;;;;;;3.62;2.22;;;;;;;;;;143738;642;46020;-90
2021/09/02 00:18:32;;;;;;;4.75;2.30;;;;;;;;;;143736;604;46018;-87
2021/09/02 00:20:59;;;;;;;10.77;2.50;;;;;;;;;;143737;591;46020;-88
2021/09/02 00:23:28;;;;;;;5.20;2.12;;;;;;;;;;143733;595;46920;-90
2021/09/02 00:25:56;;;;;;;7.22;2.17;;;;;;;;;;143733;601;46020;-88
2021/09/02 00:28:24;;;;;;;7.87;1.77;;;;;;;;;;143739;639;46020;-89
2021/09/02 00:30:51;;;;;;;6.62;2.35;;;;;;;;;;143735;639;46023;-87
2021/09/02 00:33:19;;;;;;;3.10;2.00;;;;;;;;;;143733;604;46012;-91
2021/09/02 00:35:48;;;;;;;2.60;2.08;;;;;;;;;;143736;571;46021;-89
2021/09/02 00:38:15;;;;;;;5.65;2.05;;;;;;;;;;143737;594;46012;-89
2021/09/02 00:40:42;;;;;;;4.40;2.10;;;;;;;;;;143732;585;47020;-87
2021/09/02 00:43:09;;;;;;;8.32;2.25;;;;;;;;;;143735;636;46012;-88
2021/09/02 00:45:38;;;;;;;3.17;2.00;;;;;;;;;;143735;611;46021;-91
2021/09/02 00:48:05;;;;;;;5.93;1.98;;;;;;;;;;143736;587;46012;-87
2021/09/02 00:50:34;;;;;;;4.95;2.25;;;;;;;;;;143733;623;47022;-90
2021/09/02 00:53:01;;;;;;;3.85;2.10;;;;;;;;;;143733;602;46012;-89
2021/09/02 00:55:32;;;;;;;2.67;1.80;;;;;;;;;;143735;566;46020;-87
2021/09/02 00:58:00;;;;;;;8.05;2.92;;;;;;;;;;143738;585;46020;-89
2021/09/02 01:00:28;;;;;;;7.72;3.15;;;;;;;;;;143734;579;47023;-89
2021/09/02 01:02:55;;;;;;;8.32;2.25;;;;;;;;;;143736;587;46012;-89
2021/09/02 01:05:22;;;;;;;5.30;2.00;;;;;;;;;;143736;642;46021;-88
2021/09/02 01:07:49;;;;;;;2.67;1.80;;;;;;;;;;143739;610;46012;-88
2021/09/02 01:10:17;;;;;;;4.32;1.92;;;;;;;;;;143734;645;46022;-89
2021/09/02 01:12:49;;;;;;;6.20;2.65;;;;;;;;;;143736;580;46021;-88
2021/09/02 01:15:21;;;;;;;8.30;2.20;;;;;;;;;;143736;652;46014;-87
2021/09/02 01:17:50;;;;;;;5.45;2.42;;;;;;;;;;143734;576;46012;-90
2021/09/02 01:20:19;;;;;;;5.97;1.98;;;;;;;;;;143735;565;46015;-87
2021/09/02 01:22:47;;;;;;;4.93;2.00;;;;;;;;;;143734;652;46012;-90
2021/09/02 01:25:20;;;;;;;5.22;2.47;;;;;;;;;;143733;570;46020;-88
2021/09/02 01:27:50;;;;;;;2.92;1.80;;;;;;;;;;143736;600;47012;-88
2021/09/02 01:30:18;;;;;;;9.07;2.35;;;;;;;;;;143737;636;46023;-88
2021/09/02 01:32:47;;;;;;;3.35;1.73;;;;;;;;;;143734;623;46012;-87
2021/09/02 01:35:15;;;;;;;11.43;2.37;;;;;;;;;;143735;619;46020;-88
2021/09/02 01:38:03;;;;;;;5.15;2.15;;;;;;;;;;143736;569;46018;-86
2021/09/02 01:40:46;;;;;;;2.65;2.08;;;;;;;;;;143733;566;46022;-88
2021/09/02 01:43:16;;;;;;;3.50;1.70;;;;;;;;;;143735;642;46012;-87
2021/09/02 01:45:45;;;;;;;5.18;2.35;;;;;;;;;;143736;617;46020;-87
2021/09/02 01:48:11;;;;;;;5.20;2.70;;;;;;;;;;143736;591;47020;-85
2021/09/02 01:50:40;;;;;;;9.32;2.80;;;;;;;;;;143735;586;46022;-89
2021/09/02 01:53:13;;;;;;;5.00;2.28;;;;;;;;;;143732;594;46012;-88
2021/09/02 01:55:42;;;;;;;;;;;;;;;;;;143739;981;46020;-87
2021/09/02 01:58:09;;;;;;;7.97;2.30;;;;;;;;;;143740;573;46011;-91
2021/09/02 02:00:36;;;;;;;10.05;2.58;;;;;;;;;;143734;635;46023;-91
2021/09/02 02:03:06;;;;;;;10.50;2.90;;;;;;;;;;143733;582;46010;-87
2021/09/02 02:05:36;;;;;;;3.42;2.30;;;;;;;;;;143736;575;46021;-88
2021/09/02 02:08:25;;;;;;;11.23;2.78;;;;;;;;;;143740;637;45020;-88
2021/09/02 02:11:11;;;;;;;6.75;2.50;;;;;;;;;;143739;581;45022;-87
2021/09/02 02:13:49;;;;;;;6.15;2.70;;;;;;;;;;143739;616;45021;-90
2021/09/02 02:16:38;;;;;;;8.48;2.53;;;;;;;;;;143737;592;46012;-89
2021/09/02 02:19:37;;;;;;;14.18;3.17;;;;;;;;;;143741;614;45020;-89
2021/09/02 02:22:24;;;;;;;6.07;2.87;;;;;;;;;;143738;601;45025;-89
2021/09/02 02:24:56;;;;;;;7.68;2.45;;;;;;;;;;143735;645;45919;-88
2021/09/02 02:27:35;;;;;;;11.90;2.70;;;;;;;;;;143736;571;45021;-90
2021/09/02 02:30:21;;;;;;;6.35;2.50;;;;;;;;;;143738;619;45021;-88
2021/09/02 02:33:10;;;;;;;4.90;2.30;;;;;;;;;;143736;589;45022;-87
2021/09/02 02:36:00;;;;;;;3.62;2.55;;;;;;;;;;143736;587;45936;-88
2021/09/02 02:38:47;;;;;;;7.15;3.28;;;;;;;;;;143738;564;45026;-90
2021/09/02 02:41:31;;;;;;;3.15;2.85;;;;;;;;;;143739;589;45020;-83
2021/09/02 02:43:58;;;;;;;19.95;3.40;;;;;;;;;;143735;571;45913;-89
2021/09/02 02:46:26;;;;;;;6.95;2.78;;;;;;;;;;143729;636;47010;-86
2021/09/02 02:48:56;;;;;;;7.93;3.17;;;;;;;;;;143737;652;46020;-89
2021/09/02 02:51:23;;;;;;;14.25;3.10;;;;;;;;;;143737;580;46021;-88
2021/09/02 02:53:50;;;;;;;9.10;3.17;;;;;;;;;;143734;587;46020;-86
2021/09/02 02:56:18;;;;;;;6.57;3.00;;;;;;;;;;143735;576;46010;-88
2021/09/02 02:58:44;;;;;;;14.13;4.65;;;;;;;;;;143733;578;46021;-88
2021/09/02 03:01:13;;;;;;;8.38;3.70;;;;;;;;;;143734;588;46018;-87
2021/09/02 03:03:40;;;;;;;15.80;3.35;;;;;;;;;;143734;570;46020;-87
2021/09/02 03:06:08;;;;;;;8.63;3.37;;;;;;;;;;143735;647;46010;-91
2021/09/02 03:08:35;;;;;;;7.55;3.60;;;;;;;;;;143736;591;46020;-89
2021/09/02 03:11:05;;;;;;;8.38;4.28;;;;;;;;;;143736;593;46010;-90
2021/09/02 03:13:32;;;;;;;14.40;3.83;;;;;;;;;;143734;580;46021;-86
2021/09/02 03:15:59;;;;;;;9.63;3.45;;;;;;;;;;143731;591;47020;-87
2021/09/02 03:18:29;;;;;;;6.82;3.83;;;;;;;;;;143733;597;46020;-87
2021/09/02 03:20:56;;;;;;;21.23;4.57;;;;;;;;;;143736;587;46018;-88
2021/09/02 03:23:25;;;;;;;9.63;3.33;;;;;;;;;;143731;564;46044;-86
2021/09/02 03:25:51;;;;;;;6.37;4.03;;;;;;;;;;143732;653;46010;-88
2021/09/02 03:28:21;;;;;;;8.07;4.37;;;;;;;;;;143734;664;46021;-87
2021/09/02 03:30:48;;;;;;;6.93;3.67;;;;;;;;;;143736;646;46020;-87
2021/09/02 03:33:15;;;;;;;6.97;3.87;;;;;;;;;;143731;565;47022;-88
2021/09/02 03:35:47;;;;;;;8.88;4.28;;;;;;;;;;143734;595;46011;-88
2021/09/02 03:38:18;;;;;;;7.15;3.72;;;;;;;;;;143734;626;46020;-90
2021/09/02 03:40:45;;;;;;;11.27;4.10;;;;;;;;;;143735;582;46010;-85
2021/09/02 03:43:25;;;;;;;5.28;3.55;;;;;;;;;;143732;569;46022;-88
2021/09/02 03:45:53;;;;;;;22.52;5.37;;;;;;;;;;143733;611;46010;-91
2021/09/02 03:48:29;;;;;;;10.95;3.90;;;;;;;;;;143734;614;46020;-89
2021/09/02 03:51:04;;;;;;;17.65;4.50;;;;;;;;;;143737;567;46018;-87
2021/09/02 03:53:43;;;;;;;;;;;;;;;;;;;;;
2021/09/02 03:56:15;;;;;;;7.60;3.60;;;;;;;;;;143733;569;46010;-89
2021/09/02 03:58:50;;;;;;;10.35;3.80;;;;;;;;;;143734;573;46021;-89
2021/09/02 04:01:17;;;;;;;26.83;4.35;;;;;;;;;;143734;587;46010;-87
2021/09/02 04:03:53;;;;;;;6.35;3.80;;;;;;;;;;143731;581;47022;-88
2021/09/02 04:06:22;;;;;;;7.32;4.20;;;;;;;;;;143735;574;46020;-88
2021/09/02 04:08:54;;;;;;;4.25;3.17;;;;;;;;;;143735;590;46020;-87
2021/09/02 04:11:21;;;;;;;5.50;3.87;;;;;;;;;;143737;569;46019;-87
2021/09/02 04:13:47;;;;;;;8.02;4.00;;;;;;;;;;143730;660;46012;-88
2021/09/02 04:16:17;;;;;;;19.10;3.83;;;;;;;;;;143734;602;46020;-88
2021/09/02 04:18:44;;;;;;;8.85;3.65;;;;;;;;;;143734;607;46020;-88
2021/09/02 04:21:10;;;;;;;9.77;3.90;;;;;;;;;;143736;570;46010;-89
2021/09/02 04:23:38;;;;;;;4.90;2.92;;;;;;;;;;143732;643;46022;-87
2021/09/02 04:26:04;;;;;;;6.12;4.00;;;;;;;;;;143732;572;46010;-89
2021/09/02 04:28:31;;;;;;;6.78;3.78;;;;;;;;;;143732;579;46021;-86
2021/09/02 04:30:58;;;;;;;7.32;3.40;;;;;;;;;;143734;611;46018;-90
2021/09/02 04:33:28;;;;;;;6.25;2.95;;;;;;;;;;143733;583;46022;-88
2021/09/02 04:35:57;;;;;;;4.62;3.45;;;;;;;;;;143731;592;46010;-86
2021/09/02 04:38:32;;;;;;;6.05;3.10;;;;;;;;;;143734;687;46020;-88
2021/09/02 04:40:59;;;;;;;5.28;3.30;;;;;;;;;;143733;589;46010;-87
2021/09/02 04:43:25;;;;;;;8.45;3.75;;;;;;;;;;143731;590;47023;-90
2021/09/02 04:45:52;;;;;;;4.50;3.17;;;;;;;;;;143731;618;46010;-88
2021/09/02 04:48:22;;;;;;;9.27;3.30;;;;;;;;;;143734;579;46020;-87
2021/09/02 04:50:52;;;;;;;6.53;3.92;;;;;;;;;;143736;577;46018;-90
2021/09/02 04:53:19;;;;;;;5.57;3.03;;;;;;;;;;143733;589;46012;-86
2021/09/02 04:55:47;;;;;;;12.30;3.53;;;;;;;;;;143732;581;46020;-85
2021/09/02 04:58:14;;;;;;;4.72;3.50;;;;;;;;;;143733;607;46021;-88
2021/09/02 05:00:42;;;;;;;3.33;3.03;;;;;;;;;;143735;609;46018;-88
2021/09/02 05:03:10;;;;;;;4.40;3.67;;;;;;;;;;143731;578;46038;-85
2021/09/02 05:05:43;;;;;;;4.95;4.05;;;;;;;;;;143732;619;46010;-87
2021/09/02 05:08:09;;;;;;;11.07;3.67;;;;;;;;;;143733;571;46012;-86
2021/09/02 05:10:36;;;;;;;7.12;3.00;;;;;;;;;;143734;629;46011;-87
2021/09/02 05:13:03;;;;;;;5.00;3.00;;;;;;;;;;143733;579;46023;-86
2021/09/02 05:15:30;;;;;;;5.62;3.25;;;;;;;;;;143733;564;46020;-88
2021/09/02 05:17:57;;;;;;;5.50;3.20;;;;;;;;;;143733;671;46012;-86
2021/09/02 05:20:23;;;;;;;4.10;2.90;;;;;;;;;;143733;632;46033;-88
2021/09/02 05:22:50;;;;;;;5.40;2.83;;;;;;;;;;143731;610;47022;-87
2021/09/02 05:25:17;;;;;;;8.20;3.37;;;;;;;;;;143731;613;46010;-87
2021/09/02 05:27:44;;;;;;;4.22;3.10;;;;;;;;;;143733;570;46020;-87
2021/09/02 05:30:15;;;;;;;3.62;3.15;;;;;;;;;;143732;569;46014;-87
2021/09/02 05:32:42;;;;;;;6.97;2.97;;;;;;;;;;143733;567;46020;-87
2021/09/02 05:35:10;;;;;;;4.10;2.58;;;;;;;;;;143730;600;46920;-87
2021/09/02 05:37:37;;;;;;;8.43;2.92;;;;;;;;;;143732;603;46020;-87
2021/09/02 05:40:05;;;;;;;11.05;3.37;;;;;;;;;;143734;628;46010;-88
2021/09/02 05:42:33;;;;;;;5.70;3.00;;;;;;;;;;143732;607;46022;-86
2021/09/02 05:45:01;;;;;;;8.82;3.72;;;;;;;;;;143730;565;46012;-87
2021/09/02 05:47:28;;;;;;;7.10;2.97;;;;;;;;;;143732;581;46020;-87
2021/09/02 05:49:54;;;;;;;5.60;3.17;;;;;;;;;;143734;618;46010;-89
2021/09/02 05:52:21;;;;;;;7.90;3.50;;;;;;;;;;143733;596;46022;-88
2021/09/02 05:54:53;;;;;;;5.07;3.40;;;;;;;;;;143731;585;46010;-89
2021/09/02 05:57:24;;;;;;;7.30;3.50;;;;;;;;;;143734;618;46021;-89
2021/09/02 05:59:51;;;;;;;11.18;3.40;;;;;;;;;;143734;576;47010;-88
2021/09/02 06:02:18;;;;;;;9.60;3.87;;;;;;;;;;143732;592;47022;-90
2021/09/02 06:04:45;;;;;;;9.55;4.03;;;;;;;;;;143733;593;46021;-88
2021/09/02 06:07:12;;;;;;;5.82;3.60;;;;;;;;;;143732;598;46012;-90
2021/09/02 06:09:39;;;;;;;7.70;4.25;;;;;;;;;;143735;653;46018;-89
2021/09/02 06:12:06;;;;;;;6.20;3.47;;;;;;;;;;143732;571;46051;-90
2021/09/02 06:14:34;;;;;;;7.70;3.72;;;;;;;;;;143729;638;46919;-90
2021/09/02 06:17:01;;;;;;;7.12;4.55;;;;;;;;;;143732;585;45020;-89
2021/09/02 06:19:27;;;;;;;12.48;4.93;;;;;;;;;;143736;570;46021;-88
2021/09/02 06:21:54;;;;;;;7.07;3.83;;;;;;;;;;143735;572;46020;-89
2021/09/02 06:24:21;;;;;;;6.62;3.90;;;;;;;;;;143732;676;46010;-89
2021/09/02 06:26:48;;;;;;;5.47;3.85;;;;;;;;;;143734;588;46012;-90
2021/09/02 06:29:15;;;;;;;8.40;4.00;;;;;;;;;;143735;602;46018;-88
2021/09/02 06:31:41;;;;;;;7.82;3.65;;;;;;;;;;143731;639;46022;-91
2021/09/02 06:34:09;;;;;;;9.77;4.05;;;;;;;;;;143731;623;46011;-89
2021/09/02 06:36:36;;;;;;;8.25;3.85;;;;;;;;;;143733;611;46020;-90
2021/09/02 06:39:03;;;;;;;5.55;3.40;;;;;;;;;;143734;610;46020;-90
2021/09/02 06:41:30;;;;;;;12.55;3.85;;;;;;;;;;143730;600;47022;-89
2021/09/02 06:43:57;;;;;;;11.77;3.37;;;;;;;;;;143735;654;45919;-90
2021/09/02 06:46:24;;;;;;;4.90;3.62;;;;;;;;;;143733;627;46020;-90
2021/09/02 06:48:51;;;;;;;8.43;3.60;;;;;;;;;;143734;566;46020;-91
2021/09/02 06:51:20;;;;;;;11.32;3.65;;;;;;;;;;143734;637;46052;-89
2021/09/02 06:53:54;;;;;;;4.90;3.50;;;;;;;;;;143737;626;45020;-89
2021/09/02 06:56:22;;;;;;;7.40;3.60;;;;;;;;;;143737;592;45021;-91
2021/09/02 06:58:50;;;;;;;4.28;3.47;;;;;;;;;;143734;611;46012;-89
2021/09/02 07:01:20;;;;;;;3.90;2.80;;;;;;;;;;143734;585;46022;-91
2021/09/02 07:03:47;;;;;;;7.97;3.22;;;;;;;;;;143735;598;45021;-90
2021/09/02 07:06:19;;;;;;;5.72;3.47;;;;;;;;;;143734;573;45913;-90
2021/09/02 07:09:05;;;;;;;7.30;3.10;;;;;;;;;;143734;914;46020;-89
2021/09/02 07:11:34;;;;;;;7.65;3.25;;;;;;;;;;143735;972;46021;-91
2021/09/02 07:14:03;;;;;;;7.60;3.80;;;;;;;;;;143733;974;46020;-92
2021/09/02 07:16:37;;;;;;;4.80;3.65;;;;;;;;;;143734;982;46020;-93
2021/09/02 07:19:14;;;;;;;8.43;2.78;;;;;;;;;;143735;594;48021;-91
2021/09/02 07:21:42;;;;;;;3.97;3.22;;;;;;;;;;143736;981;46020;-91
2021/09/02 07:24:09;;;;;;;3.90;3.42;;;;;;;;;;143732;565;47010;-88
2021/09/02 07:26:36;;;;;;;6.07;3.55;;;;;;;;;;143737;896;45021;-90
2021/09/02 07:29:04;;;;;;;10.27;3.58;;;;;;;;;;143736;593;46010;-90
2021/09/02 07:31:31;;;;;;;6.22;3.53;;;;;;;;;;143731;591;47022;-89
2021/09/02 07:34:00;;;;;;;15.30;3.67;;;;;;;;;;143731;589;46012;-91
2021/09/02 07:36:27;;;;;;;9.40;3.53;;;;;;;;;;143734;583;46020;-90
2021/09/02 07:38:54;;;;;;;6.95;3.92;;;;;;;;;;143737;575;47020;-89
2021/09/02 07:41:24;;;;;;;13.60;4.68;;;;;;;;;;143735;621;46022;-91
2021/09/02 07:43:53;;;;;;;9.82;3.70;;;;;;;;;;143736;606;45920;-89
2021/09/02 07:46:21;;;;;;;8.45;4.18;;;;;;;;;;143736;586;46020;-90
2021/09/02 07:48:49;;;;;;;9.82;4.50;;;;;;;;;;143736;636;46011;-90
2021/09/02 07:51:18;;;;;;;6.05;3.40;;;;;;;;;;143734;569;46020;-90
2021/09/02 07:53:46;;;;;;;9.10;3.62;;;;;;;;;;143736;569;46020;-91
2021/09/02 07:56:13;;;;;;;6.40;4.07;;;;;;;;;;143733;588;46021;-92
2021/09/02 07:58:42;;;;;;;5.28;4.20;;;;;;;;;;143735;615;45020;-91
2021/09/02 08:01:13;;;;;;;8.77;3.97;;;;;;;;;;143734;569;46020;-91
2021/09/02 08:03:41;;;;;;;5.28;3.60;;;;;;;;;;143736;596;46010;-89
2021/09/02 08:06:10;;;;;;;9.15;4.37;;;;;;;;;;143735;589;46020;-88
2021/09/02 08:08:37;;;;;;;6.07;4.03;;;;;;;;;;143737;577;46010;-87
2021/09/02 08:11:04;;;;;;;5.00;4.12;;;;;;;;;;143735;600;45913;-90
2021/09/02 08:13:31;;;;;;;4.35;3.40;;;;;;;;;;143737;606;45920;-89
2021/09/02 08:16:09;;;;;;;6.85;4.15;;;;;;;;;;143735;593;46020;-88
2021/09/02 08:18:39;;;;;;;4.32;3.90;;;;;;;;;;143735;580;46018;-89
2021/09/02 08:21:07;;;;;;;8.07;4.15;;;;;;;;;;143733;596;46012;-88
2021/09/02 08:23:33;;;;;;;14.32;4.20;;;;;;;;;;143736;603;46020;-89
2021/09/02 08:26:00;;;;;;;7.62;4.12;;;;;;;;;;143735;580;46021;-89
2021/09/02 08:28:27;;;;;;;18.42;4.43;;;;;;;;;;143735;564;46021;-88
2021/09/02 08:30:55;;;;;;;5.90;3.53;;;;;;;;;;143735;563;46014;-90
2021/09/02 08:33:28;;;;;;;5.15;3.60;;;;;;;;;;143732;594;46011;-86
2021/09/02 08:35:56;;;;;;;4.78;3.60;;;;;;;;;;143736;579;46012;-89
2021/09/02 08:38:27;;;;;;;3.95;3.33;;;;;;;;;;143735;571;46012;-87
2021/09/02 08:40:54;;;;;;;4.37;3.55;;;;;;;;;;143733;567;46022;-88
2021/09/02 08:43:21;;;;;;;6.95;3.42;;;;;;;;;;143734;590;46010;-90
2021/09/02 08:45:54;;;;;;;4.97;3.87;;;;;;;;;;143737;599;45020;-90
2021/09/02 08:48:30;;;;;;;13.23;4.30;;;;;;;;;;143740;604;45021;-88
2021/09/02 08:50:59;;;;;;;4.30;3.45;;;;;;;;;;143737;676;46022;-89
2021/09/02 08:53:26;;;;;;;7.40;3.62;;;;;;;;;;143732;569;46010;-89
2021/09/02 08:55:53;;;;;;;5.82;3.80;;;;;;;;;;143735;789;46021;-87
2021/09/02 08:58:20;;;;;;;10.63;3.60;;;;;;;;;;143738;615;46018;-88
2021/09/02 09:00:50;;;;;;;5.45;3.17;;;;;;;;;;143734;572;47022;-89
2021/09/02 09:03:19;;;;;;;8.48;3.45;;;;;;;;;;143734;607;46010;-89
2021/09/02 09:05:56;;;;;;;8.32;3.55;;;;;;;;;;143734;578;46020;-88
2021/09/02 09:08:40;;;;;;;7.00;3.92;;;;;;;;;;143734;598;46020;-89
2021/09/02 09:11:21;;;;;;;8.02;3.97;;;;;;;;;;143731;582;46022;-87
2021/09/02 09:14:02;;;;;;;6.37;3.67;;;;;;;;;;143731;573;46012;-90
2021/09/02 09:16:55;;;;;;;7.87;4.18;;;;;;;;;;143730;600;47013;-92
2021/09/02 09:19:43;;;;;;;4.97;3.67;;;;;;;;;;143733;613;46012;-90
2021/09/02 09:22:13;;;;;;;6.60;3.42;;;;;;;;;;143734;595;46022;-91
2021/09/02 09:24:53;;;;;;;6.75;3.53;;;;;;;;;;143738;626;46012;-91
2021/09/02 09:27:37;;;;;;;18.35;3.70;;;;;;;;;;143735;570;46021;-89
2021/09/02 09:30:24;;;;;;;4.15;3.55;;;;;;;;;;143734;569;46010;-91
2021/09/02 09:32:56;;;;;;;6.12;3.50;;;;;;;;;;143735;628;46022;-91
2021/09/02 09:35:28;;;;;;;3.87;3.33;;;;;;;;;;143731;591;46919;-88
2021/09/02 09:38:26;;;;;;;6.80;3.30;;;;;;;;;;143733;565;46020;-92
2021/09/02 09:40:53;;;;;;;6.18;3.67;;;;;;;;;;143735;625;46011;-88
2021/09/02 09:43:25;;;;;;;7.10;3.30;;;;;;;;;;143734;603;46049;-89
2021/09/02 09:45:56;;;;;;;4.35;3.50;;;;;;;;;;143734;606;46010;-89
2021/09/02 09:48:43;;;;;;;3.95;3.30;;;;;;;;;;143734;667;46021;-90
2021/09/02 09:51:15;;;;;;;7.37;3.10;;;;;;;;;;143736;596;46010;-90
2021/09/02 09:53:48;;;;;;;3.65;3.10;;;;;;;;;;143734;606;46022;-91
2021/09/02 09:56:19;;;;;;;8.02;3.20;;;;;;;;;;143733;571;46028;-88
2021/09/02 09:58:59;;;;;;;5.40;3.62;;;;;;;;;;143736;577;46020;-91
2021/09/02 10:01:27;;;;;;;9.05;3.08;;;;;;;;;;143734;630;46010;-92
2021/09/02 10:03:55;;;;;;;4.75;3.17;;;;;;;;;;143733;671;47023;-89
2021/09/02 10:06:24;;;;;;;8.68;3.60;;;;;;;;;;143734;585;46010;-91
2021/09/02 10:08:52;;;;;;;5.35;3.05;;;;;;;;;;143734;589;46020;-91
2021/09/02 10:11:24;;;;;;;3.75;3.03;;;;;;;;;;143737;574;46010;-90
2021/09/02 10:13:51;;;;;;;6.72;3.20;;;;;;;;;;143732;629;47022;-90
2021/09/02 10:16:21;;;;;;;3.83;3.22;;;;;;;;;;143734;598;45919;-90
2021/09/02 10:18:48;;;;;;;4.65;2.95;;;;;;;;;;143735;633;46021;-93
2021/09/02 10:21:16;;;;;;;4.47;3.17;;;;;;;;;;143738;580;46010;-89
2021/09/02 10:23:44;;;;;;;7.93;3.62;;;;;;;;;;143735;583;46022;-91
2021/09/02 10:26:29;;;;;;;4.32;3.03;;;;;;;;;;143738;617;45046;-91
2021/09/02 10:28:56;;;;;;;6.90;3.50;;;;;;;;;;143737;589;45020;-88
2021/09/02 10:31:23;;;;;;;6.28;2.92;;;;;;;;;;143737;595;46010;-89
2021/09/02 10:33:50;;;;;;;4.82;3.33;;;;;;;;;;143737;703;46914;-90
2021/09/02 10:36:41;;;;;;;10.73;3.00;;;;;;;;;;143735;591;46010;-89
2021/09/02 10:39:07;;;;;;;7.32;3.17;;;;;;;;;;143737;597;46021;-90
2021/09/02 10:41:52;;;;;;;8.02;3.12;;;;;;;;;;143737;574;46021;-90
2021/09/02 10:44:21;;;;;;;6.10;3.55;;;;;;;;;;143733;585;46022;-92
2021/09/02 10:46:51;;;;;;;5.95;3.35;;;;;;;;;;143736;628;46011;-89
2021/09/02 10:49:32;;;;;;;4.90;2.85;;;;;;;;;;143736;581;46020;-89
2021/09/02 10:52:05;;;;;;;4.75;3.95;;;;;;;;;;143736;957;46010;-91
2021/09/02 10:54:38;;;;;;;5.05;3.00;;;;;;;;;;143733;966;47022;-89
2021/09/02 10:57:35;;;;;;;5.43;3.60;;;;;;;;;;143735;631;46010;-91
2021/09/02 11:00:02;;;;;;;9.70;3.30;;;;;;;;;;143740;626;45020;-90
2021/09/02 11:02:42;;;;;;;9.63;3.80;;;;;;;;;;143737;589;46021;-89
2021/09/02 11:05:10;;;;;;;3.90;3.08;;;;;;;;;;143734;572;46020;-89
2021/09/02 11:07:45;;;;;;;3.65;3.10;;;;;;;;;;143736;569;46012;-88
2021/09/02 11:10:20;;;;;;;3.10;2.65;;;;;;;;;;143736;891;46021;-90
2021/09/02 11:13:01;;;;;;;5.68;3.00;;;;;;;;;;143738;572;46010;-90
2021/09/02 11:15:28;;;;;;;6.90;3.10;;;;;;;;;;143736;585;46022;-89
2021/09/02 11:17:57;;;;;;;5.15;3.65;;;;;;;;;;143735;605;46010;-90
2021/09/02 11:20:28;;;;;;;7.10;3.03;;;;;;;;;;143733;969;46012;-92
2021/09/02 11:23:20;;;;;;;3.72;3.15;;;;;;;;;;143740;889;46019;-91
2021/09/02 11:25:53;;;;;;;4.22;3.50;;;;;;;;;;143737;574;46023;-93
2021/09/02 11:28:21;;;;;;;9.25;3.17;;;;;;;;;;143735;913;46020;-93
2021/09/02 11:30:49;;;;;;;7.75;2.85;;;;;;;;;;143735;663;46020;-90
2021/09/02 11:33:17;;;;;;;4.45;3.20;;;;;;;;;;143740;981;46010;-90
2021/09/02 11:35:59;;;;;;;8.02;3.17;;;;;;;;;;143738;956;46022;-90
2021/09/02 11:38:26;;;;;;;4.65;3.00;;;;;;;;;;143735;980;45921;-91
2021/09/02 11:40:54;;;;;;;4.07;2.95;;;;;;;;;;143737;723;46021;-90
2021/09/02 11:43:24;;;;;;;6.25;3.12;;;;;;;;;;143737;569;46010;-92
2021/09/02 11:45:52;;;;;;;6.82;3.35;;;;;;;;;;143737;972;46012;-91
2021/09/02 11:48:21;;;;;;;3.30;2.97;;;;;;;;;;143737;566;46010;-90
2021/09/02 11:50:59;;;;;;;6.50;3.08;;;;;;;;;;143739;973;45020;-90
2021/09/02 11:53:33;;;;;;;4.20;3.08;;;;;;;;;;143738;973;46010;-90
2021/09/02 11:56:20;;;;;;;6.90;3.28;;;;;;;;;;143737;580;46012;-89
2021/09/02 11:59:01;;;;;;;8.70;3.03;;;;;;;;;;143735;565;46010;-90
2021/09/02 12:01:33;;;;;;;3.28;2.97;;;;;;;;;;143738;579;46012;-91
2021/09/02 12:04:00;;;;;;;13.13;3.08;;;;;;;;;;143741;569;45031;-93
2021/09/02 12:06:30;;;;;;;5.97;3.12;;;;;;;;;;143735;587;46022;-93
2021/09/02 12:09:03;;;;;;;5.15;3.10;;;;;;;;;;143735;589;45922;-93
2021/09/02 12:11:31;;;;;;;4.95;3.10;;;;;;;;;;143734;570;47012;-93
2021/09/02 12:14:17;;;;;;;7.22;2.60;;;;;;;;;;143737;569;46020;-91
2021/09/02 12:16:44;;;;;;;9.02;2.70;;;;;;;;;;143736;869;46014;-93
2021/09/02 12:19:11;;;;;;;3.95;2.87;;;;;;;;;;143738;600;46010;-90
2021/09/02 12:21:43;;;;;;;7.05;3.00;;;;;;;;;;143740;789;45020;-93
2021/09/02 12:24:14;;;;;;;7.72;3.00;;;;;;;;;;143738;631;46021;-91
2021/09/02 12:26:54;;;;;;;3.22;2.90;;;;;;;;;;143736;569;46023;-91
2021/09/02 12:29:26;;;;;;;9.10;3.30;;;;;;;;;;143735;678;46010;-91
2021/09/02 12:31:55;;;;;;;5.50;2.55;;;;;;;;;;143737;631;46014;-91
2021/09/02 12:34:30;;;;;;;8.55;3.33;;;;;;;;;;143737;578;46010;-91
2021/09/02 12:37:13;;;;;;;3.72;3.20;;;;;;;;;;143735;589;46022;-91
2021/09/02 12:40:02;;;;;;;6.12;3.00;;;;;;;;;;143739;974;46011;-91
2021/09/02 12:42:30;;;;;;;6.32;2.83;;;;;;;;;;143735;635;46020;-94
2021/09/02 12:45:27;;;;;;;3.58;2.78;;;;;;;;;;143739;727;46010;-90
2021/09/02 12:48:06;;;;;;;4.53;3.15;;;;;;;;;;143739;671;45025;-91
2021/09/02 12:50:37;;;;;;;6.37;2.92;;;;;;;;;;143735;886;46010;-90
2021/09/02 12:53:09;;;;;;;5.68;2.85;;;;;;;;;;143736;723;46012;-90
2021/09/02 12:55:37;;;;;;;4.30;2.90;;;;;;;;;;143737;583;46018;-91
2021/09/02 12:58:10;;;;;;;5.90;3.53;;;;;;;;;;143738;600;46022;-90
2021/09/02 13:00:41;;;;;;;12.50;3.47;;;;;;;;;;143736;624;46921;-90
2021/09/02 13:03:10;;;;;;;6.25;3.08;;;;;;;;;;143736;728;46018;-90
2021/09/02 13:05:38;;;;;;;6.30;2.67;;;;;;;;;;143737;971;46010;-90
2021/09/02 13:08:07;;;;;;;8.40;3.33;;;;;;;;;;143735;856;47022;-90
2021/09/02 13:10:38;;;;;;;2.95;2.65;;;;;;;;;;143733;565;46010;-90
2021/09/02 13:13:11;;;;;;;9.50;3.05;;;;;;;;;;143737;638;46020;-90
2021/09/02 13:15:40;;;;;;;8.10;2.75;;;;;;;;;;143737;621;46012;-89
2021/09/02 13:18:07;;;;;;;6.82;3.60;;;;;;;;;;143737;865;46023;-90
2021/09/02 13:20:47;;;;;;;5.47;2.95;;;;;;;;;;143733;564;46010;-89
2021/09/02 13:23:17;;;;;;;3.83;3.05;;;;;;;;;;143736;929;46019;-90
2021/09/02 13:25:50;;;;;;;3.78;2.97;;;;;;;;;;143738;581;46010;-90
2021/09/02 13:28:16;;;;;;;;;;;;;;;;;;143737;982;46022;-90
2021/09/02 13:30:58;;;;;;;4.78;3.22;;;;;;;;;;143742;980;46013;-91
2021/09/02 13:33:31;;;;;;;4.03;2.75;;;;;;;;;;143737;685;47021;-91
2021/09/02 13:35:58;;;;;;;4.15;3.10;;;;;;;;;;143737;591;46018;-88
2021/09/02 13:38:28;;;;;;;4.20;2.40;;;;;;;;;;143733;863;47022;-91
2021/09/02 13:40:55;;;;;;;6.10;3.20;;;;;;;;;;143735;594;46012;-89
2021/09/02 13:43:46;;;;;;;4.37;3.05;;;;;;;;;;143739;780;45020;-89
2021/09/02 13:46:36;;;;;;;7.20;3.80;;;;;;;;;;143741;903;45021;-91
2021/09/02 13:49:09;;;;;;;6.72;3.25;;;;;;;;;;143738;706;46020;-88
2021/09/02 13:51:36;;;;;;;6.00;2.80;;;;;;;;;;143735;592;46012;-89
2021/09/02 13:54:05;;;;;;;4.93;3.20;;;;;;;;;;143734;570;46021;-90
2021/09/02 13:56:33;;;;;;;9.10;3.10;;;;;;;;;;143736;578;46012;-91
2021/09/02 13:59:01;;;;;;;8.38;3.80;;;;;;;;;;143736;680;46020;-90
2021/09/02 14:01:29;;;;;;;3.40;2.95;;;;;;;;;;143734;570;46013;-91
2021/09/02 14:03:56;;;;;;;4.00;3.20;;;;;;;;;;143738;618;46020;-91
2021/09/02 14:06:24;;;;;;;7.80;3.42;;;;;;;;;;143737;613;46012;-90
2021/09/02 14:08:53;;;;;;;5.60;3.20;;;;;;;;;;143735;695;47022;-92
2021/09/02 14:11:21;;;;;;;8.95;2.90;;;;;;;;;;143734;621;46012;-91
2021/09/02 14:13:49;;;;;;;3.25;2.95;;;;;;;;;;143734;592;46020;-88
2021/09/02 14:16:16;;;;;;;4.60;3.30;;;;;;;;;;143735;580;46013;-89
2021/09/02 14:18:45;;;;;;;4.12;2.78;;;;;;;;;;143733;583;46051;-88
2021/09/02 14:21:13;;;;;;;4.03;3.20;;;;;;;;;;143733;828;46921;-88
2021/09/02 14:23:40;;;;;;;4.90;3.28;;;;;;;;;;143736;570;46015;-90
2021/09/02 14:26:07;;;;;;;19.35;5.37;;;;;;;;;;143737;651;46012;-90
2021/09/02 14:28:35;;;;;;;6.40;4.85;;;;;;;;;;143734;750;46022;-90
2021/09/02 14:31:02;;;;;;;4.03;3.30;;;;;;;;;;143733;709;46013;-91
2021/09/02 14:33:29;;;;;;;6.10;2.97;;;;;;;;;;143736;583;46020;-91
2021/09/02 14:35:56;;;;;;;5.03;2.97;;;;;;;;;;143737;595;46012;-90
2021/09/02 14:38:23;;;;;;;6.32;3.33;;;;;;;;;;143732;745;47022;-91
2021/09/02 14:40:51;;;;;;;7.25;3.58;;;;;;;;;;143735;587;46020;-89
2021/09/02 14:43:20;;;;;;;4.80;2.95;;;;;;;;;;143734;580;46020;-89
2021/09/02 14:45:54;;;;;;;3.85;2.87;;;;;;;;;;143736;795;46021;-88
2021/09/02 14:48:20;;;;;;;10.77;3.75;;;;;;;;;;143735;575;46023;-88
2021/09/02 14:50:50;;;;;;;8.05;2.87;;;;;;;;;;143735;573;46012;-91
2021/09/02 14:53:18;;;;;;;4.35;3.20;;;;;;;;;;143737;669;46021;-89
2021/09/02 14:55:46;;;;;;;5.85;3.25;;;;;;;;;;143736;633;46012;-88
2021/09/02 14:58:19;;;;;;;4.55;3.20;;;;;;;;;;143733;800;47022;-88
2021/09/02 15:00:46;;;;;;;8.00;3.30;;;;;;;;;;143732;576;46013;-89
2021/09/02 15:03:13;;;;;;;16.33;3.60;;;;;;;;;;143735;585;46020;-90
2021/09/02 15:05:40;;;;;;;5.25;3.00;;;;;;;;;;143734;585;46012;-90